Time;durP1;ratioP1;P1;durP2;ratioP2;P2;SDS_P1;SDS_P2;PMS_P1;PMS_P2;Temp;Humidity;BMP_temperature;BMP_pressure;BME280_temperature;BME280_humidity;BME280_pressure;Samples;Min_cycle;Max_cycle;Signal;HPM_P1;HPM_P2
2023/10/28 00:00:19;;;;;;;8.20;2.60;;;;;;;;;;703921;28;911;-67
2023/10/28 00:00:40;;;;;;;8.03;2.60;;;;;;;;;;702479;28;4335;-66
2023/10/28 00:01:00;;;;;;;9.07;2.80;;;;;;;;;;701539;28;2053;-67
2023/10/28 00:01:22;;;;;;;9.33;2.97;;;;;;;;;;704199;28;1270;-67
2023/10/28 00:01:43;;;;;;;9.32;2.83;;;;;;;;;;704396;27;923;-68
2023/10/28 00:02:05;;;;;;;6.80;2.40;;;;;;;;;;704818;27;1818;-67
2023/10/28 00:02:25;;;;;;;6.43;2.45;;;;;;;;;;705991;27;884;-67
2023/10/28 00:02:46;;;;;;;7.10;2.67;;;;;;;;;;705507;27;2357;-67
2023/10/28 00:03:06;;;;;;;8.88;2.83;;;;;;;;;;706444;27;863;-67
2023/10/28 00:03:26;;;;;;;9.33;2.90;;;;;;;;;;706065;27;981;-67
2023/10/28 00:03:47;;;;;;;6.23;2.50;;;;;;;;;;703997;27;4696;-67
2023/10/28 00:04:07;;;;;;;7.33;2.53;;;;;;;;;;706475;27;780;-67
2023/10/28 00:04:28;;;;;;;8.73;2.73;;;;;;;;;;705416;27;1252;-67
2023/10/28 00:04:48;;;;;;;8.47;2.70;;;;;;;;;;704413;27;1847;-66
2023/10/28 00:05:08;;;;;;;7.93;2.80;;;;;;;;;;705790;27;764;-67
2023/10/28 00:05:28;;;;;;;5.47;2.63;;;;;;;;;;703711;28;868;-67
2023/10/28 00:05:49;;;;;;;6.57;2.63;;;;;;;;;;702338;28;1848;-67
2023/10/28 00:06:09;;;;;;;7.87;2.73;;;;;;;;;;703219;28;990;-68
2023/10/28 00:06:29;;;;;;;9.03;2.53;;;;;;;;;;703914;28;939;-67
2023/10/28 00:06:49;;;;;;;8.57;2.58;;;;;;;;;;699282;28;4509;-67
2023/10/28 00:07:10;;;;;;;8.60;3.00;;;;;;;;;;700490;28;843;-67
2023/10/28 00:07:30;;;;;;;7.97;2.90;;;;;;;;;;702245;28;936;-67
2023/10/28 00:07:50;;;;;;;6.75;2.60;;;;;;;;;;702511;28;1234;-67
2023/10/28 00:08:11;;;;;;;7.00;2.57;;;;;;;;;;703422;28;886;-67
2023/10/28 00:08:31;;;;;;;8.07;2.55;;;;;;;;;;703702;27;879;-67
2023/10/28 00:08:52;;;;;;;7.53;2.80;;;;;;;;;;703386;27;2068;-67
2023/10/28 00:09:12;;;;;;;5.67;2.70;;;;;;;;;;705140;28;808;-67
2023/10/28 00:09:32;;;;;;;6.43;2.80;;;;;;;;;;705576;27;954;-67
2023/10/28 00:09:53;;;;;;;6.70;2.93;;;;;;;;;;705530;27;4365;-69
2023/10/28 00:10:13;;;;;;;8.02;2.80;;;;;;;;;;706891;27;852;-67
2023/10/28 00:10:35;;;;;;;8.30;2.70;;;;;;;;;;706872;27;915;-67
2023/10/28 00:10:55;;;;;;;7.43;2.55;;;;;;;;;;705577;27;1017;-67
2023/10/28 00:11:19;;;;;;;7.90;2.50;;;;;;;;;;706772;27;1394;-66
2023/10/28 00:11:39;;;;;;;7.80;2.80;;;;;;;;;;704450;27;855;-66
2023/10/28 00:12:00;;;;;;;7.97;2.53;;;;;;;;;;705818;27;1398;-67
2023/10/28 00:12:22;;;;;;;7.97;2.50;;;;;;;;;;706045;27;1229;-67
2023/10/28 00:12:42;;;;;;;8.32;2.70;;;;;;;;;;706554;27;4247;-67
2023/10/28 00:13:04;;;;;;;6.68;2.50;;;;;;;;;;704712;27;1414;-67
2023/10/28 00:13:24;;;;;;;8.70;2.65;;;;;;;;;;706253;27;1245;-67
2023/10/28 00:13:45;;;;;;;6.73;2.53;;;;;;;;;;703317;28;1119;-67
2023/10/28 00:14:06;;;;;;;7.72;2.60;;;;;;;;;;703359;28;1370;-66
2023/10/28 00:14:27;;;;;;;7.03;2.67;;;;;;;;;;703920;28;1027;-67
2023/10/28 00:14:47;;;;;;;6.78;2.70;;;;;;;;;;702867;28;1206;-67
2023/10/28 00:15:08;;;;;;;6.63;2.60;;;;;;;;;;704141;28;981;-67
2023/10/28 00:15:28;;;;;;;8.53;2.80;;;;;;;;;;704540;27;934;-67
2023/10/28 00:15:48;;;;;;;7.10;2.58;;;;;;;;;;704762;27;4384;-67
2023/10/28 00:16:09;;;;;;;7.10;2.40;;;;;;;;;;705337;27;1922;-67
2023/10/28 00:16:29;;;;;;;6.20;2.37;;;;;;;;;;704806;27;3944;-67
2023/10/28 00:16:49;;;;;;;7.47;2.50;;;;;;;;;;703536;27;2528;-67
2023/10/28 00:17:09;;;;;;;7.37;2.60;;;;;;;;;;706927;27;834;-67
2023/10/28 00:17:29;;;;;;;9.33;2.50;;;;;;;;;;705505;27;1318;-67
2023/10/28 00:17:50;;;;;;;8.83;2.67;;;;;;;;;;704709;27;1724;-67
2023/10/28 00:18:10;;;;;;;9.13;2.90;;;;;;;;;;706940;27;1136;-69
2023/10/28 00:18:31;;;;;;;7.90;2.50;;;;;;;;;;705107;27;915;-67
2023/10/28 00:18:51;;;;;;;9.20;2.60;;;;;;;;;;701016;28;4489;-68
2023/10/28 00:19:11;;;;;;;8.13;2.70;;;;;;;;;;703046;28;840;-68
2023/10/28 00:19:32;;;;;;;6.07;2.47;;;;;;;;;;701945;28;836;-67
2023/10/28 00:19:53;;;;;;;8.88;2.50;;;;;;;;;;700220;28;1471;-67
2023/10/28 00:20:17;;;;;;;10.00;2.70;;;;;;;;;;702477;28;986;-68
2023/10/28 00:20:37;;;;;;;7.57;2.60;;;;;;;;;;703096;27;1142;-68
2023/10/28 00:20:57;;;;;;;7.40;2.50;;;;;;;;;;704682;27;2388;-68
2023/10/28 00:21:18;;;;;;;8.00;2.72;;;;;;;;;;705935;27;1234;-67
2023/10/28 00:21:38;;;;;;;8.23;2.73;;;;;;;;;;707436;27;804;-67
2023/10/28 00:21:58;;;;;;;7.63;2.80;;;;;;;;;;703100;27;4446;-67
2023/10/28 00:22:19;;;;;;;7.57;2.60;;;;;;;;;;703247;28;1333;-68
2023/10/28 00:22:39;;;;;;;8.23;2.63;;;;;;;;;;703377;28;930;-67
2023/10/28 00:23:00;;;;;;;8.00;2.80;;;;;;;;;;702039;28;1033;-69
2023/10/28 00:23:22;;;;;;;5.88;2.58;;;;;;;;;;704142;28;1303;-68
2023/10/28 00:23:42;;;;;;;5.97;2.60;;;;;;;;;;702993;28;1234;-67
2023/10/28 00:24:03;;;;;;;8.00;2.70;;;;;;;;;;700887;27;2366;-67
2023/10/28 00:24:23;;;;;;;8.73;2.80;;;;;;;;;;705444;27;852;-68
2023/10/28 00:24:43;;;;;;;9.10;3.03;;;;;;;;;;705467;27;4289;-67
2023/10/28 00:25:05;;;;;;;7.03;2.83;;;;;;;;;;703830;27;2309;-68
2023/10/28 00:25:34;;;;;;;8.63;2.90;;;;;;;;;;706212;27;1323;-68
2023/10/28 00:26:04;;;;;;;8.60;2.95;;;;;;;;;;699922;28;1482;-68
2023/10/28 00:26:24;;;;;;;6.63;2.38;;;;;;;;;;700244;28;1338;-68
2023/10/28 00:26:45;;;;;;;7.28;2.58;;;;;;;;;;698486;28;1206;-68
2023/10/28 00:27:06;;;;;;;8.75;2.75;;;;;;;;;;697380;28;1414;-67
2023/10/28 00:27:26;;;;;;;8.87;2.70;;;;;;;;;;698941;28;778;-68
2023/10/28 00:27:47;;;;;;;8.65;2.75;;;;;;;;;;697835;28;4339;-67
2023/10/28 00:28:09;;;;;;;7.10;2.50;;;;;;;;;;697195;28;1438;-67
2023/10/28 00:28:33;;;;;;;7.83;2.50;;;;;;;;;;698828;28;1326;-68
2023/10/28 00:28:53;;;;;;;7.97;2.70;;;;;;;;;;700443;28;2243;-68
2023/10/28 00:29:14;;;;;;;7.93;2.80;;;;;;;;;;701211;28;864;-68
2023/10/28 00:29:34;;;;;;;7.20;2.70;;;;;;;;;;701840;28;803;-67
2023/10/28 00:29:54;;;;;;;8.57;2.70;;;;;;;;;;699777;28;2409;-68
2023/10/28 00:30:15;;;;;;;9.13;2.97;;;;;;;;;;703319;28;1265;-67
2023/10/28 00:30:39;;;;;;;6.50;2.80;;;;;;;;;;701426;28;1051;-68
2023/10/28 00:31:00;;;;;;;6.95;2.80;;;;;;;;;;695731;28;4327;-68
2023/10/28 00:31:21;;;;;;;9.27;3.20;;;;;;;;;;698467;28;1212;-68
2023/10/28 00:31:44;;;;;;;8.88;2.90;;;;;;;;;;696687;28;1284;-68
2023/10/28 00:32:05;;;;;;;8.10;2.67;;;;;;;;;;697296;28;1751;-68
2023/10/28 00:32:26;;;;;;;7.00;2.65;;;;;;;;;;696252;28;1535;-68
2023/10/28 00:32:46;;;;;;;9.40;3.42;;;;;;;;;;698997;28;789;-67
2023/10/28 00:33:06;;;;;;;9.03;3.50;;;;;;;;;;697545;28;1229;-67
2023/10/28 00:33:27;;;;;;;7.83;2.90;;;;;;;;;;696797;28;1409;-68
2023/10/28 00:33:49;;;;;;;9.88;3.03;;;;;;;;;;697690;28;4473;-69
2023/10/28 00:34:10;;;;;;;7.32;2.80;;;;;;;;;;698887;28;924;-68
2023/10/28 00:34:32;;;;;;;7.40;3.03;;;;;;;;;;697833;28;1287;-68
2023/10/28 00:34:52;;;;;;;5.72;2.92;;;;;;;;;;693856;28;2550;-67
2023/10/28 00:35:13;;;;;;;6.95;2.80;;;;;;;;;;690798;28;869;-68
2023/10/28 00:35:33;;;;;;;8.40;2.80;;;;;;;;;;693286;28;960;-67
2023/10/28 00:35:54;;;;;;;6.82;2.90;;;;;;;;;;693243;28;1734;-69
2023/10/28 00:36:15;;;;;;;7.30;2.70;;;;;;;;;;695465;28;1914;-68
2023/10/28 00:36:36;;;;;;;7.60;2.80;;;;;;;;;;696369;28;1285;-68
2023/10/28 00:36:56;;;;;;;6.47;2.70;;;;;;;;;;697057;28;4293;-67
2023/10/28 00:37:17;;;;;;;7.17;2.80;;;;;;;;;;702068;28;1212;-68
2023/10/28 00:37:37;;;;;;;7.32;2.72;;;;;;;;;;700998;28;955;-70
2023/10/28 00:37:58;;;;;;;7.50;2.70;;;;;;;;;;699795;28;1723;-69
2023/10/28 00:38:18;;;;;;;9.88;2.75;;;;;;;;;;698543;28;1436;-68
2023/10/28 00:38:38;;;;;;;10.00;2.67;;;;;;;;;;698251;28;1349;-68
2023/10/28 00:38:59;;;;;;;7.70;2.40;;;;;;;;;;699644;28;1489;-68
2023/10/28 00:39:19;;;;;;;8.53;2.70;;;;;;;;;;699690;28;887;-68
2023/10/28 00:39:39;;;;;;;6.85;2.88;;;;;;;;;;701255;28;864;-69
2023/10/28 00:39:59;;;;;;;7.70;2.93;;;;;;;;;;701735;28;4655;-70
2023/10/28 00:40:20;;;;;;;7.53;2.90;;;;;;;;;;703611;28;1261;-69
2023/10/28 00:40:42;;;;;;;6.82;3.00;;;;;;;;;;699044;28;1272;-68
2023/10/28 00:41:02;;;;;;;7.63;2.85;;;;;;;;;;698561;28;2750;-69
2023/10/28 00:41:22;;;;;;;7.90;2.80;;;;;;;;;;696792;28;1369;-69
2023/10/28 00:41:43;;;;;;;7.00;2.80;;;;;;;;;;695780;28;1621;-70
2023/10/28 00:42:04;;;;;;;7.20;2.90;;;;;;;;;;694037;28;1843;-69
2023/10/28 00:42:24;;;;;;;7.50;2.90;;;;;;;;;;695391;28;1346;-71
2023/10/28 00:42:45;;;;;;;7.47;2.90;;;;;;;;;;697127;28;4468;-70
2023/10/28 00:43:10;;;;;;;7.50;2.90;;;;;;;;;;697172;28;1727;-70
2023/10/28 00:43:32;;;;;;;8.40;2.97;;;;;;;;;;701269;28;959;-71
2023/10/28 00:43:52;;;;;;;8.90;2.90;;;;;;;;;;699538;28;1531;-71
2023/10/28 00:44:12;;;;;;;8.97;2.80;;;;;;;;;;704557;27;998;-72
2023/10/28 00:44:32;;;;;;;9.35;2.90;;;;;;;;;;705233;27;1297;-70
2023/10/28 00:44:54;;;;;;;9.80;3.10;;;;;;;;;;703650;27;2458;-71
2023/10/28 00:45:15;;;;;;;9.52;3.40;;;;;;;;;;702832;28;1392;-72
2023/10/28 00:45:37;;;;;;;10.60;3.30;;;;;;;;;;700733;28;1292;-71
2023/10/28 00:45:59;;;;;;;9.75;2.90;;;;;;;;;;698384;28;4387;-72
2023/10/28 00:46:19;;;;;;;6.75;2.60;;;;;;;;;;699670;28;1317;-71
2023/10/28 00:46:41;;;;;;;7.18;2.72;;;;;;;;;;697726;28;919;-70
2023/10/28 00:47:02;;;;;;;7.38;3.00;;;;;;;;;;694859;28;1065;-70
2023/10/28 00:47:23;;;;;;;7.15;3.08;;;;;;;;;;697665;28;1372;-71
2023/10/28 00:47:45;;;;;;;6.40;2.80;;;;;;;;;;699003;28;1203;-70
2023/10/28 00:48:06;;;;;;;7.35;2.70;;;;;;;;;;695987;28;2068;-70
2023/10/28 00:48:28;;;;;;;7.00;2.85;;;;;;;;;;696680;28;982;-70
2023/10/28 00:48:49;;;;;;;6.70;2.70;;;;;;;;;;698349;28;4497;-69
2023/10/28 00:49:09;;;;;;;5.82;2.60;;;;;;;;;;699384;28;1205;-69
2023/10/28 00:49:30;;;;;;;7.63;2.63;;;;;;;;;;700075;28;1227;-68
2023/10/28 00:49:50;;;;;;;6.85;2.70;;;;;;;;;;699251;28;2608;-70
2023/10/28 00:50:14;;;;;;;7.88;2.80;;;;;;;;;;703187;28;809;-70
2023/10/28 00:50:34;;;;;;;7.22;3.20;;;;;;;;;;703729;28;1375;-70
2023/10/28 00:50:57;;;;;;;6.60;2.72;;;;;;;;;;702675;28;1658;-70
2023/10/28 00:51:19;;;;;;;7.00;3.03;;;;;;;;;;700906;28;1272;-69
2023/10/28 00:51:43;;;;;;;7.10;3.00;;;;;;;;;;695550;28;4585;-71
2023/10/28 00:52:03;;;;;;;9.10;3.20;;;;;;;;;;693680;28;1948;-69
2023/10/28 00:52:24;;;;;;;9.32;3.10;;;;;;;;;;696847;28;1284;-69
2023/10/28 00:52:46;;;;;;;8.77;3.10;;;;;;;;;;698844;28;888;-69
2023/10/28 00:53:07;;;;;;;6.72;3.25;;;;;;;;;;694968;28;2442;-69
2023/10/28 00:53:27;;;;;;;9.10;3.30;;;;;;;;;;695634;28;872;-69
2023/10/28 00:53:49;;;;;;;8.97;3.10;;;;;;;;;;699428;28;904;-69
2023/10/28 00:54:11;;;;;;;5.95;2.92;;;;;;;;;;700367;28;1317;-72
2023/10/28 00:54:32;;;;;;;7.68;3.25;;;;;;;;;;697309;28;1887;-69
2023/10/28 00:54:54;;;;;;;7.10;2.70;;;;;;;;;;696542;28;4400;-70
2023/10/28 00:55:14;;;;;;;5.72;2.97;;;;;;;;;;697285;28;861;-70
2023/10/28 00:55:35;;;;;;;7.80;3.20;;;;;;;;;;699398;28;953;-70
2023/10/28 00:55:55;;;;;;;7.43;3.00;;;;;;;;;;700276;28;1224;-70
2023/10/28 00:56:18;;;;;;;7.97;2.87;;;;;;;;;;701492;28;1957;-69
2023/10/28 00:56:39;;;;;;;7.97;2.92;;;;;;;;;;702552;28;992;-70
2023/10/28 00:56:59;;;;;;;9.68;3.08;;;;;;;;;;701597;28;1960;-69
2023/10/28 00:57:20;;;;;;;7.93;3.00;;;;;;;;;;701014;28;1371;-69
2023/10/28 00:57:42;;;;;;;7.35;2.92;;;;;;;;;;700426;28;4296;-68
2023/10/28 00:58:02;;;;;;;8.45;3.00;;;;;;;;;;697878;28;1675;-69
2023/10/28 00:58:24;;;;;;;8.57;3.27;;;;;;;;;;701675;28;907;-69
2023/10/28 00:58:45;;;;;;;9.43;3.40;;;;;;;;;;700608;28;823;-70
2023/10/28 00:59:07;;;;;;;9.57;2.90;;;;;;;;;;700043;28;1685;-69
2023/10/28 00:59:27;;;;;;;9.68;3.10;;;;;;;;;;702733;28;1208;-69
2023/10/28 00:59:48;;;;;;;7.35;3.10;;;;;;;;;;702972;28;816;-69
2023/10/28 01:00:10;;;;;;;7.43;2.80;;;;;;;;;;704548;28;1163;-70
2023/10/28 01:00:31;;;;;;;8.00;2.88;;;;;;;;;;703562;28;1362;-69
2023/10/28 01:00:51;;;;;;;9.07;2.83;;;;;;;;;;700152;28;4481;-70
2023/10/28 01:01:13;;;;;;;8.23;2.90;;;;;;;;;;702377;28;1553;-68
2023/10/28 01:01:34;;;;;;;7.20;3.10;;;;;;;;;;702802;28;1490;-68
2023/10/28 01:01:55;;;;;;;6.20;3.00;;;;;;;;;;701337;28;1553;-68
2023/10/28 01:02:17;;;;;;;6.75;3.00;;;;;;;;;;703458;27;859;-69
2023/10/28 01:02:39;;;;;;;8.43;3.15;;;;;;;;;;705563;27;1230;-69
2023/10/28 01:03:00;;;;;;;6.03;2.85;;;;;;;;;;700825;28;1193;-69
2023/10/28 01:03:20;;;;;;;7.00;3.10;;;;;;;;;;701660;28;1304;-68
2023/10/28 01:03:40;;;;;;;8.70;3.07;;;;;;;;;;700876;28;4314;-69
2023/10/28 01:04:04;;;;;;;7.97;3.30;;;;;;;;;;699791;28;1219;-68
2023/10/28 01:04:24;;;;;;;7.25;2.97;;;;;;;;;;700537;28;986;-67
2023/10/28 01:04:45;;;;;;;7.43;2.80;;;;;;;;;;701634;28;1229;-69
2023/10/28 01:05:06;;;;;;;8.23;2.97;;;;;;;;;;697350;28;1284;-68
2023/10/28 01:05:26;;;;;;;7.30;2.80;;;;;;;;;;698839;28;1261;-69
2023/10/28 01:05:46;;;;;;;8.43;2.70;;;;;;;;;;695522;28;1134;-69
2023/10/28 01:06:09;;;;;;;7.90;2.47;;;;;;;;;;694134;28;1552;-70
2023/10/28 01:06:29;;;;;;;6.45;2.65;;;;;;;;;;694339;28;995;-70
2023/10/28 01:06:50;;;;;;;6.50;2.75;;;;;;;;;;696180;28;4328;-71
2023/10/28 01:07:10;;;;;;;8.60;2.90;;;;;;;;;;696812;28;1424;-69
2023/10/28 01:07:31;;;;;;;8.20;3.10;;;;;;;;;;701241;28;876;-71
2023/10/28 01:07:52;;;;;;;7.38;2.90;;;;;;;;;;699473;28;1273;-70
2023/10/28 01:08:12;;;;;;;7.57;3.20;;;;;;;;;;699493;28;1316;-67
2023/10/28 01:08:32;;;;;;;10.00;3.55;;;;;;;;;;698457;28;821;-67
2023/10/28 01:08:53;;;;;;;7.30;3.10;;;;;;;;;;697482;28;906;-69
2023/10/28 01:09:13;;;;;;;7.73;2.77;;;;;;;;;;698482;28;855;-69
2023/10/28 01:09:43;;;;;;;7.07;2.80;;;;;;;;;;695079;28;1431;-69
2023/10/28 01:10:03;;;;;;;6.60;2.85;;;;;;;;;;694872;28;6593;-68
2023/10/28 01:10:28;;;;;;;6.40;2.73;;;;;;;;;;696737;28;1264;-69
2023/10/28 01:10:48;;;;;;;8.15;3.00;;;;;;;;;;697006;28;1116;-69
2023/10/28 01:11:09;;;;;;;7.77;2.90;;;;;;;;;;696752;28;1207;-67
2023/10/28 01:11:29;;;;;;;7.85;3.03;;;;;;;;;;697438;28;1031;-69
2023/10/28 01:11:51;;;;;;;6.07;2.70;;;;;;;;;;698360;28;876;-69
2023/10/28 01:12:13;;;;;;;6.68;2.85;;;;;;;;;;699426;28;1314;-69
2023/10/28 01:12:35;;;;;;;6.65;3.00;;;;;;;;;;700288;28;4074;-69
2023/10/28 01:12:55;;;;;;;8.85;2.90;;;;;;;;;;700388;28;4328;-69
2023/10/28 01:13:16;;;;;;;6.53;2.70;;;;;;;;;;699906;28;1535;-67
2023/10/28 01:13:36;;;;;;;7.03;2.60;;;;;;;;;;700434;28;856;-69
2023/10/28 01:13:56;;;;;;;7.70;2.77;;;;;;;;;;699149;28;2279;-67
2023/10/28 01:14:16;;;;;;;7.05;2.90;;;;;;;;;;700580;28;1017;-68
2023/10/28 01:14:37;;;;;;;6.37;2.80;;;;;;;;;;699991;28;1251;-69
2023/10/28 01:14:57;;;;;;;5.67;2.67;;;;;;;;;;699218;28;2781;-69
2023/10/28 01:15:17;;;;;;;5.40;2.90;;;;;;;;;;703277;28;825;-68
2023/10/28 01:15:38;;;;;;;7.57;2.97;;;;;;;;;;702964;28;1164;-69
2023/10/28 01:15:59;;;;;;;8.57;2.80;;;;;;;;;;700900;28;4341;-69
2023/10/28 01:16:19;;;;;;;7.65;2.90;;;;;;;;;;702575;28;1905;-69
2023/10/28 01:16:40;;;;;;;9.30;3.30;;;;;;;;;;699292;28;1361;-68
2023/10/28 01:17:04;;;;;;;8.55;3.20;;;;;;;;;;699205;28;1446;-69
2023/10/28 01:17:27;;;;;;;6.78;3.10;;;;;;;;;;699062;28;932;-69
2023/10/28 01:17:48;;;;;;;6.28;2.60;;;;;;;;;;699384;28;732;-69
2023/10/28 01:18:10;;;;;;;6.38;2.70;;;;;;;;;;696659;28;1693;-68
2023/10/28 01:18:30;;;;;;;6.75;2.90;;;;;;;;;;699216;28;1141;-68
2023/10/28 01:18:56;;;;;;;6.37;2.90;;;;;;;;;;698901;28;4447;-68
2023/10/28 01:19:16;;;;;;;7.10;2.85;;;;;;;;;;700377;28;809;-68
2023/10/28 01:19:36;;;;;;;7.77;3.07;;;;;;;;;;698888;28;1427;-66
2023/10/28 01:19:57;;;;;;;8.18;3.30;;;;;;;;;;699397;28;1748;-69
2023/10/28 01:20:17;;;;;;;6.83;3.10;;;;;;;;;;701201;28;805;-67
2023/10/28 01:20:38;;;;;;;7.03;2.88;;;;;;;;;;700143;28;950;-68
2023/10/28 01:21:02;;;;;;;7.67;3.00;;;;;;;;;;699640;28;1101;-68
2023/10/28 01:21:22;;;;;;;7.68;2.80;;;;;;;;;;698807;28;1348;-67
2023/10/28 01:21:44;;;;;;;7.67;2.87;;;;;;;;;;700970;28;4566;-66
2023/10/28 01:22:05;;;;;;;7.03;2.78;;;;;;;;;;700162;28;2417;-68
2023/10/28 01:22:26;;;;;;;7.70;2.70;;;;;;;;;;702223;28;1132;-67
2023/10/28 01:22:46;;;;;;;5.45;2.60;;;;;;;;;;703493;28;863;-67
2023/10/28 01:23:08;;;;;;;7.05;3.20;;;;;;;;;;700235;28;1874;-68
2023/10/28 01:23:28;;;;;;;7.57;3.10;;;;;;;;;;704089;28;1271;-69
2023/10/28 01:23:48;;;;;;;7.25;3.05;;;;;;;;;;702144;28;879;-65
2023/10/28 01:24:08;;;;;;;5.50;2.97;;;;;;;;;;700725;28;2175;-67
2023/10/28 01:24:29;;;;;;;5.77;2.80;;;;;;;;;;703101;28;804;-68
2023/10/28 01:24:50;;;;;;;5.57;2.88;;;;;;;;;;703462;27;4292;-68
2023/10/28 01:25:11;;;;;;;5.37;2.63;;;;;;;;;;701840;28;1778;-68
2023/10/28 01:25:31;;;;;;;6.65;2.85;;;;;;;;;;703444;28;822;-67
2023/10/28 01:25:52;;;;;;;6.70;2.87;;;;;;;;;;701971;28;904;-69
2023/10/28 01:26:12;;;;;;;5.22;3.00;;;;;;;;;;700190;28;1259;-70
2023/10/28 01:26:32;;;;;;;5.80;3.17;;;;;;;;;;700703;28;1047;-68
2023/10/28 01:26:53;;;;;;;7.37;2.90;;;;;;;;;;697020;28;2487;-67
2023/10/28 01:27:13;;;;;;;6.80;2.90;;;;;;;;;;698303;28;1534;-66
2023/10/28 01:27:33;;;;;;;6.10;3.00;;;;;;;;;;698616;28;794;-69
2023/10/28 01:27:54;;;;;;;6.25;2.90;;;;;;;;;;693897;28;4363;-69
2023/10/28 01:28:14;;;;;;;6.97;2.83;;;;;;;;;;697706;28;1409;-70
2023/10/28 01:28:35;;;;;;;8.17;3.13;;;;;;;;;;695652;28;1155;-68
2023/10/28 01:28:55;;;;;;;5.40;2.70;;;;;;;;;;697198;28;1739;-70
2023/10/28 01:29:16;;;;;;;6.45;2.88;;;;;;;;;;700497;28;926;-67
2023/10/28 01:29:36;;;;;;;9.33;3.00;;;;;;;;;;698181;28;1104;-67
2023/10/28 01:29:58;;;;;;;8.75;2.75;;;;;;;;;;700025;28;2485;-68
2023/10/28 01:30:19;;;;;;;7.93;2.95;;;;;;;;;;701026;28;994;-66
2023/10/28 01:30:39;;;;;;;7.60;3.07;;;;;;;;;;703646;28;1360;-67
2023/10/28 01:31:00;;;;;;;7.30;2.90;;;;;;;;;;702145;28;4315;-70
2023/10/28 01:31:21;;;;;;;7.73;2.77;;;;;;;;;;701510;28;892;-68
2023/10/28 01:31:42;;;;;;;8.27;3.05;;;;;;;;;;704296;28;1349;-67
2023/10/28 01:32:03;;;;;;;7.47;2.90;;;;;;;;;;702521;28;2811;-67
2023/10/28 01:32:24;;;;;;;7.47;3.00;;;;;;;;;;702604;28;1001;-68
2023/10/28 01:32:44;;;;;;;7.60;3.47;;;;;;;;;;702888;28;1451;-70
2023/10/28 01:33:05;;;;;;;7.43;2.90;;;;;;;;;;702052;28;1853;-67
2023/10/28 01:33:25;;;;;;;7.23;3.00;;;;;;;;;;703021;28;1018;-67
2023/10/28 01:33:46;;;;;;;6.13;2.80;;;;;;;;;;700424;28;4582;-69
2023/10/28 01:34:06;;;;;;;7.07;2.70;;;;;;;;;;696547;28;1789;-70
2023/10/28 01:34:26;;;;;;;6.87;2.87;;;;;;;;;;697137;28;863;-68
2023/10/28 01:34:50;;;;;;;7.70;3.00;;;;;;;;;;694462;28;1939;-70
2023/10/28 01:35:10;;;;;;;9.55;3.10;;;;;;;;;;694015;28;1067;-67
2023/10/28 01:35:31;;;;;;;9.13;3.00;;;;;;;;;;694916;28;1351;-69
2023/10/28 01:35:51;;;;;;;8.73;3.00;;;;;;;;;;697447;28;776;-67
2023/10/28 01:36:11;;;;;;;7.43;2.77;;;;;;;;;;697898;28;1985;-67
2023/10/28 01:36:32;;;;;;;6.65;2.75;;;;;;;;;;698586;28;1220;-67
2023/10/28 01:36:55;;;;;;;5.50;2.60;;;;;;;;;;702189;28;4424;-67
2023/10/28 01:37:18;;;;;;;6.47;2.80;;;;;;;;;;703015;28;997;-67
2023/10/28 01:37:39;;;;;;;5.88;2.70;;;;;;;;;;702537;28;1302;-66
2023/10/28 01:37:59;;;;;;;6.30;2.90;;;;;;;;;;699997;28;1135;-69
2023/10/28 01:38:20;;;;;;;7.20;2.83;;;;;;;;;;699558;28;3334;-68
2023/10/28 01:38:42;;;;;;;7.20;2.80;;;;;;;;;;699404;28;1992;-69
2023/10/28 01:39:03;;;;;;;7.10;2.92;;;;;;;;;;695371;28;6211;-67
2023/10/28 01:39:24;;;;;;;10.02;3.10;;;;;;;;;;698572;28;891;-65
2023/10/28 01:39:48;;;;;;;6.80;2.90;;;;;;;;;;685733;28;4385;-66
2023/10/28 01:40:17;;;;;;;6.30;2.70;;;;;;;;;;698647;28;2268;-67
2023/10/28 01:40:37;;;;;;;7.32;2.92;;;;;;;;;;699292;28;959;-66
2023/10/28 01:40:57;;;;;;;6.57;3.10;;;;;;;;;;697652;28;1382;-66
2023/10/28 01:41:18;;;;;;;5.45;3.03;;;;;;;;;;700652;28;800;-67
2023/10/28 01:41:39;;;;;;;5.30;2.80;;;;;;;;;;699086;28;1015;-66
2023/10/28 01:42:00;;;;;;;6.60;2.90;;;;;;;;;;698300;28;2400;-70
2023/10/28 01:42:21;;;;;;;7.38;3.00;;;;;;;;;;700505;28;1178;-67
2023/10/28 01:42:41;;;;;;;6.63;3.00;;;;;;;;;;700281;28;4493;-67
2023/10/28 01:43:03;;;;;;;6.60;3.00;;;;;;;;;;701716;28;2789;-67
2023/10/28 01:43:23;;;;;;;7.15;2.80;;;;;;;;;;700772;28;1207;-67
2023/10/28 01:43:45;;;;;;;7.40;2.90;;;;;;;;;;702772;28;868;-67
2023/10/28 01:44:06;;;;;;;7.15;3.03;;;;;;;;;;701162;28;2694;-67
2023/10/28 01:44:27;;;;;;;9.23;3.00;;;;;;;;;;700625;28;1257;-67
2023/10/28 01:44:48;;;;;;;7.53;3.03;;;;;;;;;;699285;28;927;-67
2023/10/28 01:45:09;;;;;;;6.47;2.92;;;;;;;;;;699900;28;2411;-68
2023/10/28 01:45:29;;;;;;;6.03;2.70;;;;;;;;;;698710;28;1199;-67
2023/10/28 01:45:49;;;;;;;6.90;3.10;;;;;;;;;;699934;28;4605;-67
2023/10/28 01:46:10;;;;;;;6.57;3.00;;;;;;;;;;700811;27;1742;-68
2023/10/28 01:46:30;;;;;;;7.28;2.78;;;;;;;;;;706505;27;950;-68
2023/10/28 01:46:50;;;;;;;5.97;2.63;;;;;;;;;;701942;28;1771;-67
2023/10/28 01:47:11;;;;;;;5.90;2.73;;;;;;;;;;702146;28;2468;-68
2023/10/28 01:47:31;;;;;;;6.18;2.85;;;;;;;;;;700049;28;1590;-67
2023/10/28 01:47:52;;;;;;;7.07;2.90;;;;;;;;;;698168;28;1149;-67
2023/10/28 01:48:13;;;;;;;5.88;2.85;;;;;;;;;;696623;28;1777;-67
2023/10/28 01:48:33;;;;;;;5.43;2.80;;;;;;;;;;696054;28;892;-68
2023/10/28 01:48:54;;;;;;;5.57;2.80;;;;;;;;;;694959;28;4487;-67
2023/10/28 01:49:14;;;;;;;7.55;3.10;;;;;;;;;;691544;28;2489;-67
2023/10/28 01:49:35;;;;;;;7.30;2.90;;;;;;;;;;695448;28;892;-66
2023/10/28 01:49:57;;;;;;;6.93;3.13;;;;;;;;;;695565;28;2050;-67
2023/10/28 01:50:20;;;;;;;5.45;2.63;;;;;;;;;;697063;28;932;-67
2023/10/28 01:50:41;;;;;;;6.47;2.80;;;;;;;;;;701606;28;1210;-67
2023/10/28 01:51:01;;;;;;;6.38;2.75;;;;;;;;;;703437;28;2319;-67
2023/10/28 01:51:22;;;;;;;6.88;2.92;;;;;;;;;;703435;28;876;-67
2023/10/28 01:51:43;;;;;;;7.43;3.00;;;;;;;;;;703080;28;4320;-67
2023/10/28 01:52:05;;;;;;;9.05;3.15;;;;;;;;;;699948;28;1726;-67
2023/10/28 01:52:25;;;;;;;8.38;2.95;;;;;;;;;;701237;28;1026;-68
2023/10/28 01:52:45;;;;;;;6.53;2.70;;;;;;;;;;700755;28;1412;-67
2023/10/28 01:53:06;;;;;;;8.60;3.00;;;;;;;;;;699207;28;2469;-67
2023/10/28 01:53:26;;;;;;;7.80;2.77;;;;;;;;;;700911;28;838;-68
2023/10/28 01:53:46;;;;;;;7.15;2.90;;;;;;;;;;699697;28;963;-68
2023/10/28 01:54:07;;;;;;;6.77;3.00;;;;;;;;;;698521;28;1744;-68
2023/10/28 01:54:27;;;;;;;7.23;3.00;;;;;;;;;;700136;28;1244;-67
2023/10/28 01:54:47;;;;;;;6.45;2.80;;;;;;;;;;698100;28;4318;-68
2023/10/28 01:55:09;;;;;;;6.63;2.60;;;;;;;;;;696566;28;2412;-67
2023/10/28 01:55:29;;;;;;;8.10;2.88;;;;;;;;;;698234;28;1033;-67
2023/10/28 01:55:50;;;;;;;7.93;2.90;;;;;;;;;;696619;28;825;-68
2023/10/28 01:56:10;;;;;;;7.43;2.97;;;;;;;;;;699484;28;1914;-67
2023/10/28 01:56:30;;;;;;;8.17;2.97;;;;;;;;;;697275;28;962;-68
2023/10/28 01:56:51;;;;;;;8.27;2.87;;;;;;;;;;696357;28;1301;-67
2023/10/28 01:57:11;;;;;;;7.43;2.80;;;;;;;;;;695648;28;3279;-67
2023/10/28 01:57:31;;;;;;;7.97;2.60;;;;;;;;;;696686;28;843;-67
2023/10/28 01:57:51;;;;;;;7.20;2.80;;;;;;;;;;695755;28;4426;-68
2023/10/28 01:58:12;;;;;;;7.65;2.90;;;;;;;;;;697180;28;1787;-66
2023/10/28 01:58:32;;;;;;;5.30;2.57;;;;;;;;;;699343;28;1288;-67
2023/10/28 01:58:53;;;;;;;5.47;2.47;;;;;;;;;;698245;28;1413;-68
2023/10/28 01:59:13;;;;;;;7.30;2.80;;;;;;;;;;694238;28;1777;-68
2023/10/28 01:59:33;;;;;;;5.90;2.90;;;;;;;;;;695308;28;780;-67
2023/10/28 01:59:54;;;;;;;6.03;2.90;;;;;;;;;;695960;28;1728;-67
2023/10/28 02:00:16;;;;;;;6.30;2.70;;;;;;;;;;696821;28;1960;-68
2023/10/28 02:00:37;;;;;;;7.20;2.58;;;;;;;;;;697770;28;931;-68
2023/10/28 02:00:57;;;;;;;7.60;2.90;;;;;;;;;;698053;28;4174;-68
2023/10/28 02:01:18;;;;;;;7.25;2.70;;;;;;;;;;700176;28;1924;-68
2023/10/28 02:01:38;;;;;;;6.93;2.60;;;;;;;;;;700504;28;1053;-66
2023/10/28 02:02:01;;;;;;;5.70;2.70;;;;;;;;;;700277;28;1754;-68
2023/10/28 02:02:21;;;;;;;5.72;2.72;;;;;;;;;;704341;28;904;-68
2023/10/28 02:02:44;;;;;;;6.53;2.40;;;;;;;;;;699536;28;1562;-67
2023/10/28 02:03:08;;;;;;;4.90;2.30;;;;;;;;;;699703;28;2254;-68
2023/10/28 02:03:30;;;;;;;5.25;2.42;;;;;;;;;;703101;28;1065;-68
2023/10/28 02:03:51;;;;;;;5.97;2.60;;;;;;;;;;698090;28;4530;-67
2023/10/28 02:04:11;;;;;;;6.03;2.37;;;;;;;;;;698583;28;2408;-67
2023/10/28 02:04:31;;;;;;;6.53;2.40;;;;;;;;;;700837;28;797;-70
2023/10/28 02:04:52;;;;;;;6.93;2.33;;;;;;;;;;703010;28;1169;-69
2023/10/28 02:05:15;;;;;;;6.57;2.50;;;;;;;;;;701570;28;1817;-70
2023/10/28 02:05:35;;;;;;;7.68;2.53;;;;;;;;;;703594;28;1136;-67
2023/10/28 02:05:55;;;;;;;5.93;2.33;;;;;;;;;;705804;28;808;-67
2023/10/28 02:06:16;;;;;;;5.32;2.40;;;;;;;;;;706171;28;1181;-69
2023/10/28 02:06:37;;;;;;;5.97;2.43;;;;;;;;;;705087;28;982;-67
2023/10/28 02:06:58;;;;;;;6.15;2.42;;;;;;;;;;697543;28;4491;-66
2023/10/28 02:07:19;;;;;;;5.13;2.40;;;;;;;;;;698142;28;1419;-68
2023/10/28 02:07:40;;;;;;;6.75;2.50;;;;;;;;;;698633;28;926;-69
2023/10/28 02:08:00;;;;;;;6.93;2.60;;;;;;;;;;696712;28;2143;-67
2023/10/28 02:08:21;;;;;;;4.50;2.40;;;;;;;;;;698026;28;811;-69
2023/10/28 02:08:42;;;;;;;5.63;2.30;;;;;;;;;;699146;28;990;-67
2023/10/28 02:09:03;;;;;;;5.20;2.50;;;;;;;;;;702579;28;4124;-69
2023/10/28 02:09:23;;;;;;;8.38;2.72;;;;;;;;;;706873;28;923;-66
2023/10/28 02:09:43;;;;;;;6.78;2.53;;;;;;;;;;701807;28;5249;-69
2023/10/28 02:10:05;;;;;;;5.30;2.57;;;;;;;;;;702404;28;2198;-68
2023/10/28 02:10:25;;;;;;;6.38;2.90;;;;;;;;;;702971;28;947;-69